Kynouria — V7VY6 — position and weather

sailwx.info

Track history (hours):
 
Tides and Currents Weather Stations Pressure Air Temp Water Temp Dewpoint Dewpoint Depression Visibility Wind Speed Wind Dir Waves Ship Positions

Kynouria

Last reported at 2015-Mar-21 12:06 UTC. Time now 2015-Mar-27 10:18 UTC.
Position S 28°50' E 032°10'.

Length 229 m; draft 14.9 m.

Type: Cargo ship. MMSI: 538004243.

Date/timePositionNaut miles runAvg speedWind from/ knotsBaromVisibWave heightAir tempDewpointWater temp
2015-Mar-21 12:06S 28°50' E 032°10'5 9.3
2015-Mar-21 11:34S 28°48' E 032°05'2 0.0
2015-Mar-19 15:09S 28°48' E 032°03'0 0.0
2015-Mar-19 14:33S 28°48' E 032°03'0 0.0
2015-Mar-19 13:33S 28°48' E 032°03'0 0.0
2015-Mar-19 12:33S 28°48' E 032°03'0 0.0
2015-Mar-19 11:21S 28°48' E 032°03'0 0.0
2015-Mar-19 10:27S 28°48' E 032°03'0 0.0
2015-Mar-19 09:27S 28°48' E 032°03'0 0.0
2015-Mar-19 08:27S 28°48' E 032°03'0 0.0
2015-Mar-19 07:33S 28°48' E 032°03'0 0.0
2015-Mar-19 06:33S 28°48' E 032°03'0 0.0
2015-Mar-19 05:33S 28°48' E 032°03'0 0.0
2015-Mar-19 04:33S 28°48' E 032°03'0 0.0
2015-Mar-19 03:33S 28°48' E 032°03'0 0.0
2015-Mar-19 02:33S 28°48' E 032°03'  
2015-Mar-15 12:33S 28°48' E 032°03'0 0.0
2015-Mar-15 11:33S 28°48' E 032°03'6 0.3
2015-Mar-14 18:13S 28°51' E 032°09'4 5.6
2015-Mar-14 17:29S 28°53' E 032°12'1 0.9
2015-Mar-14 16:23S 28°52' E 032°12'4 4.8
2015-Mar-14 15:32S 28°56' E 032°11'0 0.3
2015-Mar-14 14:33S 28°57' E 032°11'0 0.0
2015-Mar-14 11:27S 28°57' E 032°11'0 0.0
2015-Mar-13 09:33S 28°57' E 032°11'0 0.0
2015-Mar-13 06:09S 28°57' E 032°11'0 0.0
2015-Mar-13 05:33S 28°57' E 032°11'0 0.0
2015-Mar-13 04:33S 28°57' E 032°11'0 0.0
2015-Mar-13 03:27S 28°57' E 032°11'0 0.0
2015-Mar-13 02:33S 28°57' E 032°11'0 0.0
2015-Mar-13 00:33S 28°57' E 032°11'0 0.0
2015-Mar-12 14:09S 28°57' E 032°11'0 0.0
2015-Mar-12 09:33S 28°57' E 032°11'0 0.0
2015-Mar-12 08:15S 28°57' E 032°11'0 0.0
2015-Mar-12 05:09S 28°57' E 032°11'0 0.0
2015-Mar-12 02:27S 28°57' E 032°11'0 0.0
2015-Mar-11 12:21S 28°57' E 032°11'  
Track history (hours):
 
Tides and Currents Weather Stations Pressure Air Temp Water Temp Dewpoint Dewpoint Depression Visibility Wind Speed Wind Dir Waves Ship Positions

Kynouria

Last reported at 2015-Mar-21 12:06 UTC. Time now 2015-Mar-27 10:18 UTC.
Position S 28°50' E 032°10'.

Length 229 m; draft 14.9 m.

Type: Cargo ship. MMSI: 538004243.

Date/timePositionNaut miles runAvg speedWind from/ knotsBaromVisibWave heightAir tempDewpointWater temp
2015-Mar-21 12:06S 28°50' E 032°10'5 9.3
2015-Mar-21 11:34S 28°48' E 032°05'2 0.0
2015-Mar-19 15:09S 28°48' E 032°03'0 0.0
2015-Mar-19 14:33S 28°48' E 032°03'0 0.0
2015-Mar-19 13:33S 28°48' E 032°03'0 0.0
2015-Mar-19 12:33S 28°48' E 032°03'0 0.0
2015-Mar-19 11:21S 28°48' E 032°03'0 0.0
2015-Mar-19 10:27S 28°48' E 032°03'0 0.0
2015-Mar-19 09:27S 28°48' E 032°03'0 0.0
2015-Mar-19 08:27S 28°48' E 032°03'0 0.0
2015-Mar-19 07:33S 28°48' E 032°03'0 0.0
2015-Mar-19 06:33S 28°48' E 032°03'0 0.0
2015-Mar-19 05:33S 28°48' E 032°03'0 0.0
2015-Mar-19 04:33S 28°48' E 032°03'0 0.0
2015-Mar-19 03:33S 28°48' E 032°03'0 0.0
2015-Mar-19 02:33S 28°48' E 032°03'  
2015-Mar-15 12:33S 28°48' E 032°03'0 0.0
2015-Mar-15 11:33S 28°48' E 032°03'6 0.3
2015-Mar-14 18:13S 28°51' E 032°09'4 5.6
2015-Mar-14 17:29S 28°53' E 032°12'1 0.9
2015-Mar-14 16:23S 28°52' E 032°12'4 4.8
2015-Mar-14 15:32S 28°56' E 032°11'0 0.3
2015-Mar-14 14:33S 28°57' E 032°11'0 0.0
2015-Mar-14 11:27S 28°57' E 032°11'0 0.0
2015-Mar-13 09:33S 28°57' E 032°11'0 0.0
2015-Mar-13 06:09S 28°57' E 032°11'0 0.0
2015-Mar-13 05:33S 28°57' E 032°11'0 0.0
2015-Mar-13 04:33S 28°57' E 032°11'0 0.0
2015-Mar-13 03:27S 28°57' E 032°11'0 0.0
2015-Mar-13 02:33S 28°57' E 032°11'0 0.0
2015-Mar-13 00:33S 28°57' E 032°11'0 0.0
2015-Mar-12 14:09S 28°57' E 032°11'0 0.0
2015-Mar-12 09:33S 28°57' E 032°11'0 0.0
2015-Mar-12 08:15S 28°57' E 032°11'0 0.0
2015-Mar-12 05:09S 28°57' E 032°11'0 0.0
2015-Mar-12 02:27S 28°57' E 032°11'0 0.0
2015-Mar-11 12:21S 28°57' E 032°11'  

Dump ship's entire track history